Impacts TAF Board INFO
FOR SITUATIONAL AWARENESS. NOT TO BE USED FOR FLIGHT PLANNING PURPOSES.
IDs:

KCVG - Cincinnati Intl, KY, US

Issued at 0815 UTC 19 Nov 2017
Updated at 1020 UTC 19 Nov 2017
Potential Impact None Slight Moderate High
Time0952Z 19/11Z 19/12Z 19/13Z 19/14Z 19/15Z 19/16Z 19/17Z 19/18Z 19/19Z 19/20Z 19/21Z 19/22Z 19/23Z>>
Type OBS PRVL PRVL PRVL PRVL PRVL PRVL PRVL PRVL PRVL PRVL PRVL PRVL PRVL
VIS 10 >6 >6 >6 >6 >6 >6 >6 >6 >6 >6 >6 >6 >6
CIG 31 40 25 25 25 25 25 25 25 25 35 35 -- --
Cover OVC OVC OVC OVC OVC OVC OVC OVC OVC OVC BKN BKN FEW FEW
FltCat VFR VFR MVFR MVFR MVFR MVFR MVFR MVFR MVFR MVFR VFR VFR VFR VFR
WX -- -- -- -- -- -- -- -- -- -- -- -- -- --
WDir 280 300 300 300 300 300 300 300 300 300 280 280 280 280
WSpd 10 14 12 12 12 12 12 12 12 12 12 12 10 10
WGst -- 22 18 18 18 18 18 18 18 18 18 18 -- --

Raw TAF
KCVG 190815Z 1908/2012 30014G22KT P6SM OVC040
  FM191200 30012G18KT P6SM OVC025
  FM192000 28012G18KT P6SM BKN035
  FM192200 28010KT P6SM FEW035
  FM200600 25005KT P6SM SCT250


Raw METAR
KCVG 190952Z 28010KT 10SM OVC031 04/M01 A2989 RMK AO2 PK WND 29027/0854 SLP118 T00391006
KCVG 190852Z 29016G23KT 10SM OVC041 04/01 A2987 RMK AO2 SLP115 T00390006 51034
KCVG 190752Z 29014KT 10SM OVC043 04/02 A2985 RMK AO2 SLP107 T00390017

METAR Board
Radar Display
Forecast Discussion

FOR SITUATIONAL AWARENESS. NOT TO BE USED FOR FLIGHT PLANNING PURPOSES.